Amargosa Valley, NV

2:37 PM PST on March 03, 2015 (GMT -0800)
RAWS BUDDY ADAMS NV US | Change Station
CLOSE
Current Station
Personal Weather Station
Location: Beatty, NV
Elevation: 4592 ft
Nearby Weather Stations

Elev 4592 ft 37.02 °N, 116.61 °W | Updated 46 minutes ago

Mostly Cloudy
Mostly Cloudy
46 °F
Feels Like 39 °F
N
18
Wind Variable Wind from NNW
Gusts 27.0 mph

Today
High -- | Low -- °F
--% Chance of Precip.
Yesterday
High -- | Low -- °F
Precip. -- in
6:13 AM 5:41 PM
Waxing Gibbous, 97% visible
Pressure 29.87 in
Visibility 10.0 miles
Clouds Few 2600 ft
Scattered Clouds 7500 ft
Overcast 9500 ft
Windchill 39 °F
Dew Point 27 °F
Humidity 47%
Rainfall 0.22 in
Snow Depth Not available.
UV 2 out of 12
Pollen 8.80 out of 12
Air Quality Not available.
Flu Activity Not available.
SPECI KDRA 032158Z AUTO 23014G24KT 10SM -RA FEW026 SCT075 OVC095 07/02 A2987 RMK AO2 WSHFT 2141 P0000 T00720022

More Conditions Fewer Conditions

Pressure 29.87 in
Visibility 10.0 miles
Clouds Few 2600 ft
Scattered Clouds 7500 ft
Overcast 9500 ft
Windchill 39 °F
Dew Point 27 °F
Humidity 47%
Rainfall 0.22 in
Snow Depth Not available.
UV 2 out of 12
Pollen 8.80 out of 12
Air Quality Not available.
Flu Activity Not available.
SPECI KDRA 032158Z AUTO 23014G24KT 10SM -RA FEW026 SCT075 OVC095 07/02 A2987 RMK AO2 WSHFT 2141 P0000 T00720022

More Conditions Fewer Conditions

10-Day Weather Forecast

Almanac

Astronomy

Mar. 03, 2015 Rise Set
Actual Time
Civil Twilight
Nautical Twilight
Astronomical Twilight
Moon
Length of Visible Light
Length of Day
Tomorrow will be .
, % of the Moon is Illuminated

Today's Extremes

State Highs State Lows

Community

WunderPhotos

Upload Photos

1,802,297 photos uploaded!

WunderBlogs® & News

Nearby

Air Quality

  Air Quality AQ Index Pollutant
Not available.

Snow Depth

Station Depth Elevation

Earthquake Activity

City Distance Mag. Time & Date
Minimum magnitude displayed is 2.5.

Coastal Water Temperatures

Place Temperature

Nearby Weather Stations